METAR Data
IDs: Format: Raw Decoded Include TAF

Data at: 0027 UTC 25 Apr 2019

PAEG 242353Z AUTO 02003KT 10SM SCT040 BKN055 04/M06 A3013 RMK AO2 SLP214 60000 T00441056 10044 20000 51005 TSNO
PAEG 242253Z AUTO 31004KT 10SM SCT035 SCT048 BKN055 03/M05 A3013 RMK AO2 SNB02E47 SLP213 P0000 T00331050 TSNO
PAEG 242153Z AUTO 30007KT 10SM FEW038 SCT048 OVC060 03/M03 A3012 RMK AO2 SNE2054 SLP210 P0000 T00281028 TSNO
PAEG 242053Z AUTO 32004KT 8SM -SN FEW034 BKN046 OVC055 02/M02 A3011 RMK AO2 SLP209 P0000 60000 T00221017 51017 TSNO
PAEG 242032Z AUTO 26003KT 7SM -SN FEW017 BKN039 OVC046 02/M02 A3011 RMK AO2 P0000 T00171017 TSNO
PAEG 242022Z AUTO VRB03KT 3SM -SN SCT019 BKN025 OVC039 01/M02 A3011 RMK AO2 P0000 T00111022 TSNO
PAEG 242015Z AUTO 29003KT 1 3/4SM -SN SCT017 OVC025 01/M03 A3011 RMK AO2 P0000 T00111028 TSNO
PAEG 242000Z AUTO 00000KT 3SM -SN FEW019 BKN029 OVC045 02/M02 A3010 RMK AO2 P0000 T00171022 TSNO
PAEG 241953Z AUTO 00000KT 1 3/4SM -SN SCT022 BKN029 OVC045 01/M02 A3010 RMK AO2 VIS 1 1/4V2 1/2 SLP204 P0000 T00111022 TSNO
PAEG 241922Z AUTO 00000KT 2 1/2SM -SN BKN020 BKN029 OVC038 01/M02 A3009 RMK AO2 VIS 1 3/4V4 P0000 T00111017 TSNO
PAEG 241853Z AUTO 00000KT 1 3/4SM -SN BR BKN025 OVC035 01/M02 A3008 RMK AO2 SLP199 P0000 T00061017 TSNO
PAEG 241843Z AUTO 00000KT 2SM -SN BKN029 OVC036 01/M02 A3008 RMK AO2 P0000 T00061022 TSNO
PAEG 241834Z AUTO 03003KT 2SM -SN FEW027 OVC032 01/M02 A3008 RMK AO2 P0000 T00061022 TSNO
PAEG 241824Z AUTO 00000KT 3SM -SN FEW029 OVC036 01/M02 A3007 RMK AO2 P0000 T00061022 TSNO
PAEG 241803Z AUTO 00000KT 2 1/2SM -SN SCT020 OVC032 01/M02 A3007 RMK AO2 P0000 T00061022 TSNO
PAEG 241753Z AUTO 06004KT 4SM -SN BKN020 OVC027 00/M03 A3006 RMK AO2 SNB47 SLP192 P0000 60000 T00001033 10006 21022 51019 TSNO
PAEG 241653Z AUTO 33003KT 9SM BKN021 OVC032 00/M03 A3005 RMK AO2 SNE50 SLP189 P0000 T00001033 TSNO
PAEG 241553Z AUTO 29003KT 4SM -SN SCT022 OVC029 M01/M04 A3003 RMK AO2 SNB21 SLP181 P0000 T10111039 TSNO
PAEG 241529Z AUTO 00000KT 4SM -SN SCT024 OVC031 M02/M04 A3002 RMK AO2 SNB21 P0000 T10171044 TSNO
PAEG 241453Z AUTO 28003KT 10SM OVC025 M02/M04 A3001 RMK AO2 SLP173 T10171039 51022 TSNO
PAEG 241417Z AUTO 27003KT 10SM BKN025 BKN033 OVC043 M02/M04 A2999 RMK AO2 T10221044 TSNO
PAEG 241353Z AUTO 25003KT 10SM SCT025 BKN032 OVC050 M02/M04 A2999 RMK AO2 SLP166 T10221039 TSNO
PAEG 241253Z AUTO 26003KT 10SM FEW026 OVC060 M02/M04 A2996 RMK AO2 SLP158 T10221044 TSNO
PAEG 241241Z AUTO 25004KT 10SM SCT026 OVC055 M02/M04 A2996 RMK AO2 T10221044 TSNO
PAEG 241231Z AUTO 27003KT 8SM BKN026 OVC044 M02/M04 A2996 RMK AO2 T10171039 TSNO
PAEG 241153Z AUTO 00000KT 10SM FEW036 OVC047 M02/M03 A2994 RMK AO2 SLP149 70011 T10171033 10000 21017 51028 TSNO
PAEG 241053Z AUTO 27004KT 10SM FEW033 OVC044 M01/M03 A2992 RMK AO2 SLP142 T10111033 TSNO
PAEG 240953Z AUTO 00000KT 10SM OVC046 M01/M03 A2989 RMK AO2 SLP134 T10111028 TSNO
PAEG 240853Z AUTO 27004KT 8SM OVC050 M01/M03 A2986 RMK AO2 SLP120 T10111033 400281011 51025 TSNO
PAEG 240753Z AUTO 26004KT 10SM OVC048 M01/M03 A2983 RMK AO2 SLP113 T10061028 TSNO
PAEG 240653Z AUTO 26005KT 8SM FEW023 FEW043 OVC060 M01/M03 A2981 RMK AO2 SLP104 T10061028 TSNO
PAEG 240553Z AUTO 29003KT 6SM BR FEW017 SCT030 OVC046 00/M02 A2978 RMK AO2 SLP095 60000 T00001022 10022 20000 53025 TSNO
PAEG 240526Z AUTO 27003KT 4SM BR SCT018 OVC043 00/M02 A2977 RMK AO2 T00001022 TSNO
PAEG 240507Z AUTO 28005KT 2 1/2SM BR FEW028 OVC033 00/M02 A2976 RMK AO2 T00001022 TSNO
PAEG 240453Z AUTO 28004KT 3SM BR OVC031 00/M02 A2975 RMK AO2 SNE04 SLP084 P0000 T00001022 TSNO
PAEG 240353Z AUTO 27004KT 3SM -SN BR BKN044 OVC055 01/M02 A2972 RMK AO2 SLP076 P0000 T00061017 TSNO
PAEG 240321Z AUTO VRB03KT 3SM -SN BR OVC042 01/M02 A2971 RMK AO2 P0000 T00061017 TSNO
PAEG 240313Z AUTO 27005KT 2 1/2SM -SN BR BKN040 OVC049 01/M02 A2971 RMK AO2 P0000 T00061017 TSNO
PAEG 240253Z AUTO 28004KT 3SM -SN BR BKN038 OVC047 01/M02 A2971 RMK AO2 SLP069 P0000 60000 T00061017 51016 TSNO
PAEG 240251Z AUTO VRB04KT 3SM -SN BR BKN036 OVC047 01/M02 A2971 RMK AO2 P0000 TSNO
PAEG 240243Z AUTO 26005KT 2 1/2SM -SN BR BKN034 OVC043 01/M02 A2971 RMK AO2 P0000 T00061017 TSNO
PAEG 240232Z AUTO 26005KT 1 1/2SM -SN BR BKN032 OVC041 01/M02 A2970 RMK AO2 P0000 T00061017 TSNO
PAEG 240153Z AUTO 28005KT 1 1/2SM -SN BR BKN028 OVC037 01/M02 A2968 RMK AO2 SLP062 P0000 T00061017 TSNO
PAEG 240145Z AUTO 28006KT 1 3/4SM -SN BKN032 OVC055 01/M02 A2968 RMK AO2 P0000 T00111017 TSNO
PAEG 240116Z AUTO VRB06KT 2SM -SN BKN045 OVC060 02/M02 A2967 RMK AO2 P0000 T00171022 TSNO
PAEG 240053Z AUTO 27007KT 5SM -SN BKN049 OVC065 02/M02 A2966 RMK AO2 SNB05 SLP053 P0000 T00171017 TSNO
PAEG 232353Z AUTO 27008KT 10SM SCT025 BKN031 OVC044 02/M01 A2963 RMK AO2 SLP043 60001 T00221006 10028 20011 53016 TSNO
PAEG 232253Z AUTO 27007KT 5SM BR FEW021 BKN031 OVC039 02/00 A2961 RMK AO2 SNE01B29E38 SLP035 P0000 T00220000 TSNO
PAEG 232251Z AUTO 27005KT 5SM BR SCT021 BKN031 OVC037 02/00 A2961 RMK AO2 SNE01B29E38 P0000 TSNO
PAEG 232237Z AUTO 29008KT 4SM -SN BR FEW016 BKN029 OVC048 02/00 A2960 RMK AO2 SNE01B29 P0000 T00220000 TSNO
PAEG 232227Z AUTO 27008KT 5SM BR FEW016 BKN030 OVC042 02/00 A2960 RMK AO2 SNE01 P0000 T00220000 TSNO
PAEG 232215Z AUTO 26006KT 7SM FEW016 BKN028 OVC035 02/00 A2959 RMK AO2 SNE01 P0000 T00220000 TSNO
PAEG 232153Z AUTO 26007KT 210V290 6SM -SN SCT018 BKN031 OVC040 02/M01 A2958 RMK AO2 SNB2055E04B53 SLP027 P0000 T00221006 TSNO
PAEG 232053Z AUTO 27008KT 4SM BR OVC036 02/M01 A2955 RMK AO2 SNE29 SLP016 P0000 60001 T00171006 53026 TSNO
PAEG 232026Z AUTO 27007KT 3SM -SN BR OVC034 02/M01 A2954 RMK AO2 P0000 T00171006 TSNO
PAEG 232007Z AUTO 28006KT 2 1/2SM -SN BR OVC034 01/M01 A2953 RMK AO2 P0000 T00111006 TSNO
PAEG 231953Z AUTO 27008KT 1 1/2SM -SN BR OVC032 01/M01 A2952 RMK AO2 SNB1857 SLP006 P0000 T00111006 TSNO
PAEG 231935Z AUTO 29010G16KT 1 1/2SM -SN BR OVC030 01/M01 A2952 RMK AO2 SNB1857 P0000 T00111006 TSNO
PAEG 231928Z AUTO 28008G16KT 2SM -SN BR FEW019 OVC031 02/M01 A2951 RMK AO2 SNB1857 P0000 T00171006 TSNO
PAEG 231903Z AUTO 29008KT 6SM -SN BR SCT018 OVC035 02/M01 A2950 RMK AO2 SNB1857 P0000 T00171006 TSNO
PAEG 231853Z AUTO VRB06KT 10SM SCT017 BKN023 OVC036 02/M01 A2950 RMK AO2 SNE03 SLP996 P0001 T00221006 TSNO
PAEG 231753Z AUTO VRB05KT 7SM -SN FEW016 BKN033 OVC044 02/01 A2947 RMK AO2 SLP988 P0001 60010 T00170006 10022 20006 51012 TSNO
PAEG 231748Z AUTO VRB03KT 5SM -SN BR FEW016 BKN027 OVC039 02/01 A2947 RMK AO2 P0001 TSNO
PAEG 231739Z AUTO 26003KT 2 1/2SM -SN BR FEW015 BKN023 OVC037 01/01 A2947 RMK AO2 P0001 T00110006 TSNO
PAEG 231730Z AUTO 26005KT 1 3/4SM -SN BR BKN016 OVC035 01/00 A2947 RMK AO2 P0001 T00110000 TSNO
PAEG 231708Z AUTO 28006KT 1SM -SN BR VV013 01/00 A2947 RMK AO2 P0001 T00110000 TSNO
PAEG 231700Z AUTO 28005KT 3/4SM -SN BR VV014 01/00 A2946 RMK AO2 P0000 T00110000 TSNO
PAEG 231653Z AUTO 29006KT 1SM -SN BR VV016 01/00 A2946 RMK AO2 SLP984 P0002 T00110000 TSNO
PAEG 231453Z AUTO 26003KT 1SM -SN BR FEW009 OVC019 01/00 A2941 RMK AO2 SLP965 P0003 60004 T00060000 51015 TSNO
PAEG 231430Z AUTO 00000KT 1SM -SN BR VV020 01/00 A2940 RMK AO2 P0002 T00060000 TSNO
PAEG 231411Z AUTO 00000KT 1/2SM SN FG VV020 01/00 A2939 RMK AO2 P0001 T00060000 TSNO
PAEG 231401Z AUTO 26003KT 1 3/4SM -SN BR OVC024 01/00 A2939 RMK AO2 P0000 T00110000 TSNO
PAEG 231353Z AUTO 28003KT 3SM -SN BR OVC026 01/00 A2939 RMK AO2 SNB38 SLP958 P0001 T00110000 TSNO
PAEG 231302Z AUTO 28003KT 9SM OVC034 01/00 A2937 RMK AO2 T00110000 TSNO
PAEG 231253Z AUTO 27003KT 7SM OVC028 01/00 A2936 RMK AO2 UPB24E31 SLP949 P0000 T00110000 TSNO
PAEG 231230Z AUTO 27003KT 9SM UP BKN028 OVC034 02/00 A2935 RMK AO2 UPB24 P0000 T00170000 TSNO